GCXOLPMA

Guest
Details From GCXO - Tenerife Norte - Los Rodeos
To LPMA - Madeira
Flight Number -
Tags generated
Created
Modified
Stats Distance 254 nm / 471 km
Max Altitude 24,500 ft / 7,468 m
Waypoints 4
Social Downloads 14
Likes 0
Share VATSIM

Download

Looking for another format? Having issues loading an existing format? Contact us
Advertisement - Login to hide

Notes

Basic altitude profile: - Ascent Rate: 2500ft/min - Ascent Speed: 250kts - Cruise Altitude: 35000ft - Cruise Speed: 420kts - Descent Rate: 1500ft/min - Descent Speed: 250kts Options: - Use NATs: yes - Use PACOTS: yes - Use low airways: yes - Use high airways: yes

Route

GCXO BRICK UN728 ORTIS LPMA

ID Type Via Altitude Latitude Longitude Leg Dist Tot Dist Heading (true) Name
O GCXO APT - 0 ft / 0 m 28.48266˚ -16.34154˚ - 0 nm - Tenerife Norte - Los Rodeos
BRICK FIX - 22,700 ft / 6,919 m 29.59137˚ -16.37289˚ 66 nm 66 nm 359° / 359° -
ORTIS FIX UN728 (AWY-HI) 24,500 ft / 7,468 m 31.40696˚ -16.55691˚ 109 nm 176 nm 355° / 355° -
O LPMA APT - 0 ft / 0 m 32.69770˚ -16.77445˚ 78 nm 254 nm 352° / 352° Madeira

Altitude Profile

Advertisement - Login to hide

Weather


0- 5 10 15 20 25 30 35+ Temperature / ° C

Clouds and Precipitation
Forecast for 2017-12-11 06:00 UTC. Updated an hour ago

Ground ~20,000 ft ~40,000 ft Winds

GCXO

Details ICAO GCXO (TFN)
Name Tenerife Norte - Los Rodeos
Region Canary Islands
Timezone Atlantic/Canary (UTC+0.0)
Stats Elevation 2,076 ft / 633 m (AMSL)
Location 28.482656° -16.341541°
Runways 1
Magnetic Variation 5.004° W

METAR

GCXO 110200Z AUTO 28012KT 9999 NCD 12/11 Q1023

Decode

TAF

TAF GCXO 102000Z 1021/1121 31010KT 9999 SCT010 TX17/1113Z TN13/1106Z PROB30 TEMPO 1021/1109 3000 BCFG BKN005 PROB40 TEMPO 1119/1121 3000 RA BKN005

Decode

Departure Runways

ID Width Length Bearing (true) Bearing (mag) Surface Threshold Offset Overrun Length
12 148 ft / 45 m 11,165 ft / 3,403 m 110.67° 115.67° Asphalt 0 ft / 0 m 197 ft / 60 m
30 148 ft / 45 m 11,165 ft / 3,403 m 290.69° 295.69° Asphalt 0 ft / 0 m 197 ft / 60 m

LPMA

Details ICAO LPMA (FNC)
Name Madeira
Region Portugal
Timezone Atlantic/Madeira (UTC+0.0)
Stats Elevation 192 ft / 59 m (AMSL)
Location 32.697704° -16.774449°
Runways 1
Magnetic Variation 4.983° W

METAR

LPMA 110200Z 25005KT 220V300 9999 SCT016 16/12 Q1019

Decode

TAF

TAF LPMA 102300Z 1100/1124 35007KT 9999 SCT015 SCT030 TEMPO 1100/1106 VRB05KT BECMG 1103/1106 SCT013 BKN030 TEMPO 1106/1114 6000 RADZ SCT008 BKN013 BECMG 1107/1110 35018G30KT TEMPO 1107/1114 VRB08G18KT BECMG 1114/1116 02018G30KT TEMPO 1116/1124 02022G33KT

Decode

Destination Runways

ID Width Length Bearing (true) Bearing (mag) Surface Threshold Offset Overrun Length
05 141 ft / 43 m 8,683 ft / 2,647 m 42.98° 47.96° Asphalt 472 ft / 144 m 0 ft / 0 m
23 141 ft / 43 m 8,683 ft / 2,647 m 222.99° 227.97° Asphalt 466 ft / 142 m 0 ft / 0 m

Popular Alternatives